Time;durP1;ratioP1;P1;durP2;ratioP2;P2;SDS_P1;SDS_P2;PMS_P1;PMS_P2;Temp;Humidity;BMP_temperature;BMP_pressure;BME280_temperature;BME280_humidity;BME280_pressure;Samples;Min_cycle;Max_cycle;Signal;HPM_P1;HPM_P2
2021/12/09 00:01:02;;;;;;;63.10;24.30;;;-5.90;99.90;;;;;;10511539;28;20375;-78
2021/12/09 00:06:28;;;;;;;67.87;27.23;;;-5.80;99.90;;;;;;10545390;28;20198;-78
2021/12/09 00:11:51;;;;;;;46.43;20.63;;;-5.80;99.90;;;;;;10551421;28;20277;-78
2021/12/09 00:17:12;;;;;;;39.73;18.83;;;-5.80;99.90;;;;;;10566894;28;20210;-76
2021/12/09 00:22:35;;;;;;;49.10;20.20;;;-5.80;99.90;;;;;;10532884;28;20197;-75
2021/12/09 00:27:57;;;;;;;44.47;20.07;;;-5.80;99.90;;;;;;10521889;28;20302;-76
2021/12/09 00:33:19;;;;;;;39.73;18.20;;;-5.80;99.90;;;;;;10534507;28;20202;-78
2021/12/09 00:38:42;;;;;;;48.30;19.63;;;-5.80;99.90;;;;;;10550701;28;20298;-76
2021/12/09 00:44:05;;;;;;;52.17;22.60;;;-5.90;99.90;;;;;;10519255;28;20431;-76
2021/12/09 00:49:30;;;;;;;44.67;21.20;;;-5.80;99.90;;;;;;10547606;28;20309;-77
2021/12/09 00:54:54;;;;;;;39.73;17.73;;;-5.80;99.90;;;;;;10565003;28;20211;-78
2021/12/09 01:00:20;;;;;;;37.53;16.90;;;-5.80;99.90;;;;;;10514583;28;20214;-79
2021/12/09 01:05:44;;;;;;;31.13;15.37;;;-5.90;99.90;;;;;;10532735;28;20256;-78
2021/12/09 01:11:14;;;;;;;35.67;15.03;;;-5.90;99.90;;;;;;10550773;28;20222;-78
2021/12/09 01:16:36;;;;;;;31.00;15.40;;;-5.90;99.90;;;;;;10535532;28;20202;-78
2021/12/09 01:21:58;;;;;;;29.40;14.80;;;-5.80;99.90;;;;;;10517222;28;20198;-79
2021/12/09 01:27:20;;;;;;;38.87;15.50;;;-5.70;99.90;;;;;;10529964;28;20262;-79
2021/12/09 01:32:49;;;;;;;29.37;14.20;;;-5.60;99.90;;;;;;10517964;28;20213;-78
2021/12/09 01:38:14;;;;;;;28.63;12.83;;;-5.50;99.90;;;;;;10548465;28;20222;-78
2021/12/09 01:43:36;;;;;;;28.63;14.00;;;-5.40;99.90;;;;;;10547353;28;20498;-78
2021/12/09 01:48:58;;;;;;;29.63;14.17;;;-5.30;99.90;;;;;;10562948;28;20226;-77
2021/12/09 01:54:23;;;;;;;27.87;13.63;;;-5.20;99.90;;;;;;10562948;28;20514;-77
2021/12/09 01:59:47;;;;;;;27.80;12.47;;;-5.10;99.90;;;;;;10513952;28;20198;-76
2021/12/09 02:05:12;;;;;;;26.20;11.90;;;-5.10;99.90;;;;;;10562578;28;20234;-76
2021/12/09 02:10:34;;;;;;;24.73;12.63;;;-5.10;99.90;;;;;;10537607;28;20259;-77
2021/12/09 02:15:57;;;;;;;24.77;12.57;;;-5.10;99.90;;;;;;10516424;28;20211;-76
2021/12/09 02:21:22;;;;;;;24.87;12.27;;;-5.10;99.90;;;;;;10530116;28;20202;-77
2021/12/09 02:26:49;;;;;;;23.07;10.93;;;-5.10;99.90;;;;;;10562148;28;20201;-76
2021/12/09 02:32:11;;;;;;;23.57;11.50;;;-5.10;99.90;;;;;;10528823;28;20230;-76
2021/12/09 02:37:33;;;;;;;23.43;11.03;;;-5.00;99.90;;;;;;10542772;28;20497;-76
2021/12/09 02:42:55;;;;;;;23.37;11.47;;;-5.00;99.90;;;;;;10543660;28;20212;-77
2021/12/09 02:48:19;;;;;;;29.33;12.17;;;-5.00;99.90;;;;;;10529020;28;20458;-79
2021/12/09 02:53:41;;;;;;;21.10;10.50;;;-4.80;99.90;;;;;;10527129;28;20202;-77
2021/12/09 02:59:05;;;;;;;23.67;11.97;;;-4.70;99.90;;;;;;10529446;28;20223;-77
2021/12/09 03:04:49;;;;;;;19.33;10.10;;;-4.70;99.90;;;;;;10543145;28;20211;-76
2021/12/09 03:10:21;;;;;;;20.77;9.87;;;-4.70;99.90;;;;;;10524734;28;20254;-79
2021/12/09 03:15:43;;;;;;;24.33;11.23;;;-4.60;99.90;;;;;;10531717;28;20489;-76
2021/12/09 03:21:17;;;;;;;24.30;12.43;;;-4.50;99.90;;;;;;10546820;28;20202;-76
2021/12/09 03:26:54;;;;;;;24.47;11.10;;;-4.60;99.90;;;;;;10542781;28;20204;-76
2021/12/09 03:32:18;;;;;;;24.33;11.37;;;-4.70;99.90;;;;;;10545213;28;20220;-76
2021/12/09 03:37:42;;;;;;;21.47;10.40;;;-4.60;99.90;;;;;;10539551;28;20302;-76
2021/12/09 03:43:04;;;;;;;25.13;12.37;;;-4.60;99.90;;;;;;10542186;28;20525;-76
2021/12/09 03:48:29;;;;;;;34.10;14.53;;;-4.70;99.90;;;;;;10550749;28;20212;-77
2021/12/09 03:53:53;;;;;;;27.37;13.30;;;-4.70;99.90;;;;;;10561071;28;20210;-76
2021/12/09 03:59:15;;;;;;;32.83;14.17;;;-4.70;99.90;;;;;;10549495;28;20279;-76
2021/12/09 04:04:37;;;;;;;30.60;12.57;;;-4.70;99.90;;;;;;10531615;28;20225;-76
2021/12/09 04:09:59;;;;;;;32.23;12.93;;;-4.60;99.90;;;;;;10549258;28;20468;-76
2021/12/09 04:15:22;;;;;;;24.37;11.17;;;-4.50;99.90;;;;;;10551321;28;20273;-76
2021/12/09 04:20:45;;;;;;;28.07;13.57;;;-4.60;99.90;;;;;;10566745;28;20199;-77
2021/12/09 04:26:07;;;;;;;28.03;11.23;;;-4.60;99.90;;;;;;10551131;28;20195;-76
2021/12/09 04:31:29;;;;;;;26.67;12.77;;;-4.70;99.90;;;;;;10564961;28;20224;-76
2021/12/09 04:36:52;;;;;;;24.27;12.37;;;-4.60;99.90;;;;;;10534225;28;20201;-76
2021/12/09 04:42:14;;;;;;;26.00;12.30;;;-4.60;99.90;;;;;;10527258;28;20551;-76
2021/12/09 04:47:37;;;;;;;36.10;17.10;;;-4.60;99.90;;;;;;10529941;28;20211;-76
2021/12/09 04:52:59;;;;;;;31.07;13.47;;;-4.70;99.90;;;;;;10547537;28;20218;-78
2021/12/09 04:58:23;;;;;;;42.63;18.47;;;-4.60;99.90;;;;;;10531280;28;20232;-78
2021/12/09 05:03:47;;;;;;;25.30;13.23;;;-4.70;99.90;;;;;;10531340;28;20202;-79
2021/12/09 05:09:16;;;;;;;27.10;13.30;;;-4.60;99.90;;;;;;10530423;28;20226;-76
2021/12/09 05:14:38;;;;;;;30.07;14.50;;;-4.60;99.90;;;;;;10564257;28;20200;-76
2021/12/09 05:20:00;;;;;;;36.30;16.20;;;-4.50;99.90;;;;;;10544568;28;20208;-77
2021/12/09 05:25:22;;;;;;;30.13;15.10;;;-4.40;99.90;;;;;;10563529;28;20386;-76
2021/12/09 05:36:27;;;;;;;39.27;16.33;;;-4.40;99.90;;;;;;10537367;28;20206;-75
2021/12/09 05:41:50;;;;;;;35.37;16.17;;;-4.40;99.90;;;;;;10531234;28;20249;-76
2021/12/09 05:47:13;;;;;;;26.50;14.07;;;-4.40;99.90;;;;;;10530453;28;20207;-76
2021/12/09 05:52:35;;;;;;;35.27;15.30;;;-4.40;99.90;;;;;;10543018;28;21013;-76
2021/12/09 05:57:57;;;;;;;30.90;15.63;;;-4.30;99.90;;;;;;10562028;28;20362;-76
2021/12/09 06:03:22;;;;;;;37.73;18.57;;;-4.40;99.90;;;;;;10530593;28;20206;-78
2021/12/09 06:08:44;;;;;;;41.23;17.37;;;-4.40;99.90;;;;;;10562419;28;20210;-78
2021/12/09 06:14:09;;;;;;;41.23;18.00;;;-4.40;99.90;;;;;;10546865;28;20208;-79
2021/12/09 06:19:31;;;;;;;42.53;17.67;;;-4.40;99.90;;;;;;10544015;28;20466;-78
2021/12/09 06:24:53;;;;;;;39.63;17.17;;;-4.50;99.90;;;;;;10543093;28;20265;-78
2021/12/09 06:30:18;;;;;;;41.67;18.23;;;-4.40;99.90;;;;;;10550172;28;20257;-78
2021/12/09 06:35:40;;;;;;;42.63;19.50;;;-4.30;99.90;;;;;;10546608;28;20194;-78
2021/12/09 06:41:03;;;;;;;54.27;22.97;;;-4.30;99.90;;;;;;10560997;28;20227;-78
2021/12/09 06:46:25;;;;;;;57.53;22.67;;;-4.30;99.90;;;;;;10546346;28;20194;-79
2021/12/09 06:51:47;;;;;;;62.07;25.23;;;-4.30;99.90;;;;;;10509193;28;20407;-78
2021/12/09 06:57:10;;;;;;;60.00;25.67;;;-4.20;99.90;;;;;;10542693;28;20204;-78
2021/12/09 07:02:32;;;;;;;93.20;31.10;;;-4.20;99.90;;;;;;10561125;28;20259;-78
2021/12/09 07:07:55;;;;;;;83.83;31.47;;;-4.20;99.90;;;;;;10560628;28;20215;-78
2021/12/09 07:13:16;;;;;;;77.47;32.70;;;-4.10;99.90;;;;;;10528670;28;20271;-78
2021/12/09 07:18:38;;;;;;;57.73;25.07;;;-4.20;99.90;;;;;;10542682;28;20489;-78
2021/12/09 07:24:01;;;;;;;57.50;25.13;;;-4.30;99.90;;;;;;10550755;28;20255;-78
2021/12/09 07:29:25;;;;;;;56.17;22.73;;;-4.20;99.90;;;;;;10521629;28;20589;-78
2021/12/09 07:34:47;;;;;;;45.73;21.97;;;-4.30;99.90;;;;;;10553489;28;20498;-78
2021/12/09 07:40:14;;;;;;;43.50;20.97;;;-4.20;99.90;;;;;;10552726;28;20285;-78
2021/12/09 07:45:36;;;;;;;42.17;19.50;;;-4.20;99.90;;;;;;10536075;28;20269;-78
2021/12/09 07:50:58;;;;;;;46.63;21.40;;;-4.10;99.90;;;;;;10550404;28;20222;-79
2021/12/09 07:56:20;;;;;;;36.70;16.57;;;-4.00;99.90;;;;;;10532528;28;20197;-77
2021/12/09 08:01:42;;;;;;;39.03;17.13;;;-4.00;99.90;;;;;;10533881;28;20203;-78
2021/12/09 08:07:05;;;;;;;40.53;16.50;;;-3.90;99.90;;;;;;10534931;28;20269;-78
2021/12/09 08:12:27;;;;;;;43.83;18.60;;;-4.00;99.90;;;;;;10537850;28;20427;-78
2021/12/09 08:18:25;;;;;;;45.10;19.97;;;-3.80;99.90;;;;;;10552890;28;20222;-78
2021/12/09 08:23:46;;;;;;;49.87;21.37;;;-3.70;99.90;;;;;;10534202;28;20208;-78
2021/12/09 08:29:08;;;;;;;51.37;23.50;;;-3.60;99.90;;;;;;10565589;28;20214;-78
2021/12/09 08:34:29;;;;;;;51.67;21.63;;;-3.60;99.90;;;;;;10537162;28;20390;-78
2021/12/09 08:39:53;;;;;;;42.80;18.63;;;-3.60;99.90;;;;;;10533656;28;20242;-79
2021/12/09 08:45:18;;;;;;;53.83;21.77;;;-3.50;99.90;;;;;;10458872;28;20248;-83
2021/12/09 08:50:43;;;;;;;45.63;20.00;;;-3.40;99.90;;;;;;10480750;28;20297;-78
2021/12/09 08:56:05;;;;;;;45.60;20.13;;;-3.30;99.90;;;;;;10488809;28;20206;-78
2021/12/09 09:01:27;;;;;;;50.57;20.40;;;-3.30;99.90;;;;;;10518074;28;20268;-79
2021/12/09 09:06:55;;;;;;;51.63;21.57;;;-3.30;99.90;;;;;;10485516;28;20203;-77
2021/12/09 09:12:19;;;;;;;43.90;20.73;;;-3.20;99.90;;;;;;10498245;28;20548;-78
2021/12/09 09:17:41;;;;;;;36.70;18.30;;;-3.20;99.90;;;;;;10517359;28;20196;-78
2021/12/09 09:23:05;;;;;;;46.13;21.47;;;-3.10;99.90;;;;;;10498973;28;20286;-79
2021/12/09 09:28:28;;;;;;;39.40;19.17;;;-3.20;99.90;;;;;;10501658;28;20206;-77
2021/12/09 09:33:50;;;;;;;33.53;17.67;;;-3.20;99.90;;;;;;10498456;28;20221;-77
2021/12/09 09:39:18;;;;;;;33.80;18.33;;;-3.20;99.90;;;;;;10501446;28;20261;-78
2021/12/09 09:44:54;;;;;;;45.53;21.33;;;-3.00;99.90;;;;;;10483218;28;20203;-77
2021/12/09 09:50:17;;;;;;;51.30;22.50;;;-3.00;99.90;;;;;;10501719;28;20230;-77
2021/12/09 09:55:41;;;;;;;46.97;23.33;;;-2.90;99.90;;;;;;10489752;28;20510;-79
2021/12/09 10:01:03;;;;;;;40.43;21.00;;;-3.00;99.90;;;;;;10484395;28;20424;-77
2021/12/09 10:06:25;;;;;;;39.83;20.50;;;-3.20;99.90;;;;;;10499050;28;20202;-76
2021/12/09 10:11:48;;;;;;;40.00;20.50;;;-3.20;99.90;;;;;;10483496;28;20420;-77
2021/12/09 10:17:12;;;;;;;36.87;20.03;;;-3.00;99.90;;;;;;10514791;28;20207;-77
2021/12/09 10:22:36;;;;;;;40.53;20.10;;;-3.00;99.90;;;;;;10490996;28;20251;-79
2021/12/09 10:28:00;;;;;;;40.63;20.20;;;-3.10;99.90;;;;;;10483726;28;20270;-78
2021/12/09 10:33:24;;;;;;;37.87;19.80;;;-3.10;99.90;;;;;;10496588;28;20236;-79
2021/12/09 10:38:46;;;;;;;36.67;20.40;;;-3.10;99.90;;;;;;10488479;28;20254;-77
2021/12/09 10:44:08;;;;;;;40.03;19.93;;;-3.20;99.90;;;;;;10461045;28;20239;-81
2021/12/09 10:49:35;;;;;;;45.20;21.00;;;-3.10;99.90;;;;;;10481153;28;20237;-78
2021/12/09 10:54:58;;;;;;;44.53;21.30;;;-3.20;99.90;;;;;;10513791;28;20511;-78
2021/12/09 11:00:44;;;;;;;44.00;21.40;;;-3.20;99.90;;;;;;10521405;28;20202;-78
2021/12/09 11:06:15;;;;;;;41.50;21.00;;;-3.10;99.90;;;;;;10497470;28;20235;-79
2021/12/09 11:11:41;;;;;;;38.13;20.80;;;-3.20;99.90;;;;;;10500491;28;20228;-77
2021/12/09 11:17:05;;;;;;;50.00;23.07;;;-3.20;99.90;;;;;;10488357;28;20214;-81
2021/12/09 11:22:33;;;;;;;61.37;27.20;;;-3.20;99.90;;;;;;10471885;28;20456;-83
2021/12/09 11:28:13;;;;;;;53.77;25.57;;;-3.10;99.90;;;;;;10521180;28;20485;-80
2021/12/09 11:33:43;;;;;;;57.27;26.33;;;-3.10;99.90;;;;;;10482533;28;20250;-84
2021/12/09 11:39:18;;;;;;;51.93;25.00;;;-3.20;99.90;;;;;;10474200;28;20235;-82
2021/12/09 11:44:41;;;;;;;57.43;26.47;;;-3.10;99.90;;;;;;10480375;28;20526;-80
2021/12/09 11:50:05;;;;;;;68.80;34.17;;;-3.10;99.90;;;;;;10492451;28;20250;-85
2021/12/09 11:55:35;;;;;;;56.23;28.47;;;-3.20;99.90;;;;;;10448833;28;20200;-83
2021/12/09 12:24:06;;;;;;;65.30;29.07;;;-3.00;99.90;;;;;;10517584;28;20561;-79
2021/12/09 12:36:01;;;;;;;83.40;35.90;;;-2.90;99.90;;;;;;10499570;28;20191;-78
2021/12/09 12:41:16;;;;;;;65.23;31.53;;;-2.80;99.90;;;;;;10478099;28;20271;-76
2021/12/09 12:47:13;;;;;;;64.63;31.37;;;-2.90;99.90;;;;;;10510334;28;20302;-80
2021/12/09 12:52:37;;;;;;;59.17;29.43;;;-2.80;99.90;;;;;;10518341;28;20245;-81
2021/12/09 12:58:06;;;;;;;63.50;31.03;;;-2.80;99.90;;;;;;10497005;28;20543;-79
2021/12/09 13:03:34;;;;;;;66.27;30.67;;;-2.70;99.90;;;;;;10471059;28;20195;-82
2021/12/09 13:09:15;;;;;;;67.57;31.43;;;-2.60;99.90;;;;;;10473515;28;20794;-78
2021/12/09 13:15:11;;;;;;;50.77;27.03;;;-2.50;99.90;;;;;;10488330;28;20383;-81
2021/12/09 13:20:38;;;;;;;56.53;28.20;;;-2.40;99.90;;;;;;10470690;28;20223;-78
2021/12/09 13:26:30;;;;;;;53.43;29.03;;;-2.50;99.90;;;;;;10499167;28;20207;-79
2021/12/09 13:32:00;;;;;;;57.73;29.93;;;-2.60;99.90;;;;;;10485377;28;20231;-79
2021/12/09 13:48:31;;;;;;;58.80;31.60;;;-2.60;99.90;;;;;;10484961;28;20246;-81
2021/12/09 13:54:23;;;;;;;61.30;32.50;;;-2.50;99.90;;;;;;10470591;28;20223;-78
2021/12/09 13:59:45;;;;;;;62.93;31.90;;;-2.50;99.90;;;;;;10483852;28;20443;-78
2021/12/09 14:05:14;;;;;;;60.63;30.10;;;-2.50;99.90;;;;;;10515262;28;20501;-79
2021/12/09 14:10:40;;;;;;;67.33;33.70;;;-2.50;99.90;;;;;;10483877;28;20594;-78
2021/12/09 14:16:14;;;;;;;70.67;34.40;;;-2.50;99.90;;;;;;10483928;28;20218;-77
2021/12/09 14:21:37;;;;;;;75.87;38.97;;;-2.50;99.90;;;;;;10515240;28;20260;-76
2021/12/09 14:27:04;;;;;;;64.83;35.57;;;-2.50;99.90;;;;;;10499281;28;20195;-77
2021/12/09 14:32:29;;;;;;;80.37;38.70;;;-2.50;99.90;;;;;;10482549;28;20235;-78
2021/12/09 14:37:52;;;;;;;76.20;38.27;;;-2.60;99.90;;;;;;10496903;28;20235;-78
2021/12/09 14:43:18;;;;;;;221.63;95.73;;;-2.40;99.90;;;;;;10496519;28;20432;-77
2021/12/09 14:48:45;;;;;;;202.27;78.30;;;-2.40;99.90;;;;;;10494749;28;20207;-77
2021/12/09 14:54:09;;;;;;;280.30;84.27;;;-2.40;99.90;;;;;;10496593;28;20235;-78
2021/12/09 14:59:40;;;;;;;801.77;403.03;;;-2.50;99.90;;;;;;10499751;28;20262;-79
2021/12/09 15:05:16;;;;;;;754.97;411.77;;;-2.40;99.90;;;;;;10448216;28;20238;-78
2021/12/09 15:10:38;;;;;;;136.13;84.20;;;-2.40;99.90;;;;;;10495539;28;20228;-78
2021/12/09 15:16:06;;;;;;;81.20;40.97;;;-2.30;99.90;;;;;;10499714;28;20224;-88
2021/12/09 15:21:30;;;;;;;79.23;39.30;;;-2.30;99.90;;;;;;10481904;28;20216;-82
2021/12/09 15:26:53;;;;;;;92.40;43.53;;;-2.30;99.90;;;;;;10485055;28;20198;-80
2021/12/09 15:32:15;;;;;;;80.77;38.80;;;-2.20;99.90;;;;;;10463072;28;20542;-82
2021/12/09 15:37:37;;;;;;;65.70;35.63;;;-2.30;99.90;;;;;;10513602;28;20298;-86
2021/12/09 15:43:15;;;;;;;68.53;34.93;;;-2.30;99.90;;;;;;10515143;28;20206;-88
2021/12/09 15:48:40;;;;;;;62.20;34.57;;;-2.30;99.90;;;;;;10521531;28;20211;-81
2021/12/09 15:54:05;;;;;;;484.87;271.47;;;-2.20;99.90;;;;;;10474498;28;20598;-77
2021/12/09 15:59:30;;;;;;;547.27;354.67;;;-2.10;99.90;;;;;;10484477;28;20204;-78
2021/12/09 16:04:53;;;;;;;159.53;119.00;;;-2.10;99.90;;;;;;10519904;28;20424;-78
2021/12/09 16:10:15;;;;;;;93.73;50.93;;;-2.20;99.90;;;;;;10502046;28;20247;-78
2021/12/09 16:15:53;;;;;;;804.30;419.47;;;-2.20;99.90;;;;;;10504726;28;20208;-83
2021/12/09 16:21:17;;;;;;;614.90;357.07;;;-2.20;99.90;;;;;;10509538;28;20228;-78
2021/12/09 16:26:40;;;;;;;256.20;164.13;;;-2.20;99.90;;;;;;10506756;28;20199;-79
2021/12/09 16:32:02;;;;;;;98.23;60.83;;;-2.20;99.90;;;;;;10495333;28;20219;-79
2021/12/09 16:37:25;;;;;;;72.50;41.00;;;-2.10;99.90;;;;;;10523873;28;20187;-78
2021/12/09 16:42:48;;;;;;;66.13;34.60;;;-2.20;99.90;;;;;;10485651;28;20207;-77
2021/12/09 16:48:12;;;;;;;56.73;31.03;;;-2.20;99.90;;;;;;10509154;28;20236;-78
2021/12/09 16:53:44;;;;;;;62.77;32.07;;;-2.10;99.90;;;;;;10523507;28;20525;-78
2021/12/09 16:59:21;;;;;;;67.63;32.63;;;-2.10;99.90;;;;;;10473049;28;20233;-78
2021/12/09 17:04:48;;;;;;;61.67;33.53;;;-2.10;99.90;;;;;;10508301;28;20490;-79
2021/12/09 17:10:13;;;;;;;67.90;35.43;;;-2.00;99.90;;;;;;10488042;28;20538;-79
2021/12/09 17:15:35;;;;;;;67.53;37.23;;;-2.00;99.90;;;;;;10505030;28;20203;-78
2021/12/09 17:20:58;;;;;;;78.07;39.50;;;-2.00;99.90;;;;;;10522397;28;20204;-77
2021/12/09 17:26:20;;;;;;;81.87;38.17;;;-1.90;99.90;;;;;;10490423;28;20203;-78
2021/12/09 17:31:47;;;;;;;86.43;42.57;;;-1.90;99.90;;;;;;10453990;28;20224;-79
2021/12/09 17:37:10;;;;;;;74.57;36.53;;;-2.00;99.90;;;;;;10485937;28;20214;-78
2021/12/09 17:42:32;;;;;;;70.90;36.30;;;-2.00;99.90;;;;;;10464614;28;20202;-78
2021/12/09 17:47:58;;;;;;;75.90;36.23;;;-1.90;99.90;;;;;;10456762;28;20251;-78
2021/12/09 17:53:20;;;;;;;73.30;37.23;;;-1.90;99.90;;;;;;10473748;28;20238;-78
2021/12/09 17:58:43;;;;;;;71.30;37.13;;;-1.90;99.90;;;;;;10464966;28;20209;-78
2021/12/09 18:04:06;;;;;;;74.63;38.20;;;-1.80;99.90;;;;;;10427638;28;20201;-78
2021/12/09 18:09:29;;;;;;;74.20;37.80;;;-1.80;99.90;;;;;;10468704;28;20194;-77
2021/12/09 18:14:51;;;;;;;75.50;39.17;;;-1.80;99.90;;;;;;10478291;28;20260;-78
2021/12/09 18:20:18;;;;;;;81.13;40.33;;;-1.80;99.90;;;;;;10463941;28;20201;-78
2021/12/09 18:25:43;;;;;;;83.63;41.67;;;-1.70;99.90;;;;;;10464189;28;20199;-78
2021/12/09 18:31:11;;;;;;;78.50;40.10;;;-1.70;99.90;;;;;;10460349;28;20305;-78
2021/12/09 18:36:34;;;;;;;83.40;41.83;;;-1.70;99.90;;;;;;10477204;28;20200;-80
2021/12/09 18:41:58;;;;;;;80.40;41.00;;;-1.70;99.90;;;;;;10497997;28;20303;-79
2021/12/09 18:47:21;;;;;;;78.60;41.10;;;-1.70;99.90;;;;;;10514007;28;20221;-78
2021/12/09 18:52:44;;;;;;;81.10;41.87;;;-1.70;99.90;;;;;;10492156;28;20247;-78
2021/12/09 18:58:19;;;;;;;84.53;40.83;;;-1.70;99.90;;;;;;10517522;28;20196;-78
2021/12/09 19:03:41;;;;;;;89.87;43.73;;;-1.70;99.90;;;;;;10501531;28;20488;-78
2021/12/09 19:09:04;;;;;;;98.47;45.43;;;-1.70;99.90;;;;;;10500487;28;20204;-78
2021/12/09 19:14:26;;;;;;;88.60;42.07;;;-1.70;99.90;;;;;;10488036;28;20369;-79
2021/12/09 19:19:48;;;;;;;93.87;42.30;;;-1.70;99.90;;;;;;10496221;28;20191;-76
2021/12/09 19:25:11;;;;;;;86.13;42.00;;;-1.70;99.90;;;;;;10491650;28;20393;-76
2021/12/09 19:30:33;;;;;;;77.83;42.80;;;-1.70;99.90;;;;;;10494885;28;20416;-77
2021/12/09 19:35:59;;;;;;;80.93;41.23;;;-1.70;75.30;;;;;;10490460;28;20243;-76
2021/12/09 19:41:23;;;;;;;70.17;36.43;;;-1.70;89.50;;;;;;10496925;28;20237;-77
2021/12/09 19:46:46;;;;;;;93.53;42.07;;;-1.80;92.80;;;;;;10525570;28;20218;-77
2021/12/09 19:52:08;;;;;;;92.23;45.63;;;-1.70;92.70;;;;;;10489262;28;20242;-76
2021/12/09 19:57:30;;;;;;;121.97;56.47;;;-1.60;94.60;;;;;;10493759;28;20272;-76
2021/12/09 20:02:53;;;;;;;137.03;57.90;;;-1.70;94.10;;;;;;10510720;28;20200;-76
2021/12/09 20:08:15;;;;;;;122.50;58.13;;;-1.60;93.10;;;;;;10511142;28;20203;-76
2021/12/09 20:13:38;;;;;;;103.07;51.93;;;-1.60;97.10;;;;;;10524822;28;20291;-75
2021/12/09 20:19:01;;;;;;;85.00;43.97;;;-1.60;94.30;;;;;;10501073;28;20197;-76
2021/12/09 20:24:29;;;;;;;85.70;42.13;;;-1.60;92.60;;;;;;10497932;28;20206;-77
2021/12/09 20:29:51;;;;;;;88.63;41.67;;;-1.60;86.90;;;;;;10492333;28;20196;-77
2021/12/09 20:35:14;;;;;;;108.97;46.60;;;-1.70;94.80;;;;;;10486927;28;20216;-78
2021/12/09 20:40:36;;;;;;;117.90;51.00;;;-1.70;95.50;;;;;;10523094;28;20252;-76
2021/12/09 20:45:58;;;;;;;108.80;46.73;;;-1.60;96.30;;;;;;10524393;28;20264;-76
2021/12/09 20:51:22;;;;;;;100.17;44.73;;;-1.60;99.00;;;;;;10492140;28;20244;-76
2021/12/09 20:56:46;;;;;;;116.13;48.97;;;-1.70;98.20;;;;;;10504743;28;20418;-77
2021/12/09 21:02:10;;;;;;;97.70;44.90;;;-1.70;97.00;;;;;;10491026;28;20204;-76
2021/12/09 21:07:32;;;;;;;92.97;40.93;;;-1.70;98.90;;;;;;10502822;28;20196;-78
2021/12/09 21:12:55;;;;;;;75.00;37.23;;;-1.60;99.90;;;;;;10504691;28;20229;-78
2021/12/09 21:18:20;;;;;;;82.77;41.13;;;-1.60;98.10;;;;;;10522690;28;20203;-78
2021/12/09 21:23:43;;;;;;;78.03;37.43;;;-1.60;98.10;;;;;;10489674;28;20224;-78
2021/12/09 21:29:19;;;;;;;82.60;36.83;;;-1.60;99.90;;;;;;10522335;28;20198;-76
2021/12/09 21:34:45;;;;;;;89.20;40.93;;;-1.70;99.90;;;;;;10469523;28;20227;-77
2021/12/09 21:40:11;;;;;;;101.93;42.07;;;-1.70;99.90;;;;;;10488910;28;20535;-76
2021/12/09 21:45:33;;;;;;;90.60;39.53;;;-1.70;99.90;;;;;;10490072;28;20215;-77
2021/12/09 21:50:56;;;;;;;84.50;38.10;;;-1.70;99.90;;;;;;10521834;28;20217;-76
2021/12/09 21:56:18;;;;;;;82.13;39.23;;;-1.70;99.90;;;;;;10521349;28;20200;-76
2021/12/09 22:01:41;;;;;;;79.37;37.17;;;-1.70;99.90;;;;;;10521055;28;20235;-76
2021/12/09 22:07:04;;;;;;;74.80;35.93;;;-1.70;99.90;;;;;;10483127;28;20553;-76
2021/12/09 22:12:29;;;;;;;71.77;35.43;;;-1.70;99.90;;;;;;10505403;28;20224;-76
2021/12/09 22:17:51;;;;;;;68.40;33.47;;;-1.80;99.90;;;;;;10505562;28;20215;-77
2021/12/09 22:23:14;;;;;;;73.37;33.10;;;-1.70;99.90;;;;;;10519975;28;20207;-77
2021/12/09 22:28:36;;;;;;;60.37;30.67;;;-1.70;99.90;;;;;;10505248;28;20212;-76
2021/12/09 22:33:58;;;;;;;58.83;30.23;;;-1.70;99.90;;;;;;10504589;28;20538;-77
2021/12/09 22:39:21;;;;;;;50.50;28.67;;;-1.70;99.90;;;;;;10469530;28;20231;-76
2021/12/09 22:44:44;;;;;;;53.43;27.97;;;-1.60;99.90;;;;;;10501890;28;20284;-76
2021/12/09 22:50:15;;;;;;;60.20;29.17;;;-1.60;99.90;;;;;;10519695;28;20266;-77
2021/12/09 22:55:38;;;;;;;50.60;26.77;;;-1.50;99.90;;;;;;10504511;28;20208;-76
2021/12/09 23:01:03;;;;;;;54.37;27.30;;;-1.60;99.90;;;;;;10487720;28;20206;-77
2021/12/09 23:06:27;;;;;;;56.73;27.27;;;-1.50;99.90;;;;;;10487098;28;20203;-76
2021/12/09 23:11:50;;;;;;;53.33;27.23;;;-1.60;99.90;;;;;;10519225;28;20247;-78
2021/12/09 23:17:16;;;;;;;57.10;26.87;;;-1.50;99.90;;;;;;10504309;28;20258;-78
2021/12/09 23:22:38;;;;;;;51.77;26.40;;;-1.60;99.90;;;;;;10487154;28;20574;-79
2021/12/09 23:28:00;;;;;;;54.53;26.33;;;-1.60;99.90;;;;;;10501091;28;20202;-78
2021/12/09 23:33:23;;;;;;;54.67;27.90;;;-1.60;99.90;;;;;;10486349;28;20228;-79
2021/12/09 23:38:45;;;;;;;57.40;28.33;;;-1.60;99.30;;;;;;10466069;28;20235;-76
2021/12/09 23:44:14;;;;;;;55.93;27.60;;;-1.60;97.10;;;;;;10486710;28;20205;-76
2021/12/09 23:49:36;;;;;;;53.63;27.13;;;-1.60;99.10;;;;;;10489332;28;20196;-77
2021/12/09 23:54:59;;;;;;;54.93;27.27;;;-1.70;99.80;;;;;;10503328;28;20247;-77
